Tower, Minnesota
Current Conditions -  °F | °C
As of 11:14 AM on Thursday 27 Nov 2014 (Local Time) from KCQM Reporting Station
Clear Clear  
Wind Chill: -19°   Ceiling: Unl
Heat Index: -19°   Visibility: 10mi
Dew Point: -22°   Wind: 3mph
Humidity: 78%   Direction: 290°WNW
Pressure: 30.41"   Gusts: NA
Location:  47.81°N, 92.27°W
Report Text: KCQM 271714Z AUTO 29003KT 10SM CLR M19/M22 A3041 RMK AO2
Loading
Personal Weather Stations






























Interactive Weather Map New forecast layout! Learn more

10-Day Weather Forecast

Advertisements
Track Severe Weather on mobile